createdAt,value
2023-04-23T00:01:48.165Z,100721.66
2023-04-23T00:04:18.286Z,100717.22
2023-04-23T00:06:46.818Z,100716.19
2023-04-23T00:09:16.090Z,100715.16
2023-04-23T00:11:42.777Z,100707.13
2023-04-23T00:14:09.493Z,100706.09
2023-04-23T00:16:36.463Z,100704.19
2023-04-23T00:19:03.314Z,100694.28
2023-04-23T00:21:29.858Z,100692.41
2023-04-23T00:23:56.433Z,100698.72
2023-04-23T00:26:22.940Z,100690.50
2023-04-23T00:28:49.436Z,100694.94
2023-04-23T00:31:15.933Z,100690.50
2023-04-23T00:33:42.453Z,100694.09
2023-04-23T00:36:08.948Z,100688.63
2023-04-23T00:38:35.769Z,100687.59
2023-04-23T00:41:02.552Z,100683.16
2023-04-23T00:43:29.188Z,100673.06
2023-04-23T00:45:55.757Z,100664.84
2023-04-23T00:48:22.339Z,100672.00
2023-04-23T00:50:48.792Z,100672.00
2023-04-23T00:53:15.426Z,100668.44
2023-04-23T00:55:42.320Z,100665.69
2023-04-23T00:58:09.074Z,100660.22
2023-04-23T01:00:44.140Z,100664.66
2023-04-23T01:03:10.757Z,100652.38
2023-04-23T01:05:37.515Z,100649.00
2023-04-23T01:08:04.501Z,100649.66
2023-04-23T01:10:32.669Z,100648.59
2023-04-23T01:12:59.881Z,100651.34
2023-04-23T01:15:26.762Z,100643.97
2023-04-23T01:17:53.654Z,100654.94
2023-04-23T01:20:20.256Z,100647.56
2023-04-23T01:22:46.872Z,100636.63
2023-04-23T01:25:13.599Z,100638.31
2023-04-23T01:27:40.965Z,100643.78
2023-04-23T01:30:08.800Z,100636.44
2023-04-23T01:32:35.942Z,100628.22
2023-04-23T01:35:04.681Z,100628.22
2023-04-23T01:37:32.154Z,100633.69
2023-04-23T01:39:58.984Z,100635.38
2023-04-23T01:42:25.526Z,100628.22
2023-04-23T01:44:53.460Z,100633.69
2023-04-23T01:47:20.759Z,100623.59
2023-04-23T01:49:47.403Z,100622.75
2023-04-23T01:52:14.447Z,100623.59
2023-04-23T01:54:41.151Z,100625.28
2023-04-23T01:57:08.118Z,100622.75
2023-04-23T01:59:34.657Z,100623.59
2023-04-23T02:02:01.219Z,100618.31
2023-04-23T02:04:29.609Z,100620.00
2023-04-23T02:06:56.291Z,100620.00
2023-04-23T02:09:22.780Z,100624.63
2023-04-23T02:11:49.701Z,100618.31
2023-04-23T02:14:17.395Z,100613.69
2023-04-23T02:16:45.041Z,100619.16
2023-04-23T02:19:14.638Z,100610.94
2023-04-23T02:21:42.621Z,100607.34
2023-04-23T02:24:09.315Z,100607.34
2023-04-23T02:26:36.843Z,100605.47
2023-04-23T02:29:03.308Z,100604.63
2023-04-23T02:31:29.902Z,100615.56
2023-04-23T02:33:56.426Z,100610.09
2023-04-23T02:36:22.980Z,100603.78
2023-04-23T02:38:51.083Z,100604.63
2023-04-23T02:41:17.655Z,100609.25
2023-04-23T02:43:44.132Z,100604.44
2023-04-23T02:46:10.709Z,100601.88
2023-04-23T02:48:39.671Z,100594.53
2023-04-23T02:51:07.561Z,100599.16
2023-04-23T02:53:34.147Z,100593.69
2023-04-23T02:56:01.568Z,100584.63
2023-04-23T02:58:29.173Z,100586.31
2023-04-23T03:00:59.804Z,100598.31
2023-04-23T03:03:31.896Z,100597.25
2023-04-23T03:06:00.946Z,100597.44
2023-04-23T03:08:27.915Z,100603.78
2023-04-23T03:10:54.468Z,100598.31
2023-04-23T03:13:21.367Z,100604.63
2023-04-23T03:15:48.240Z,100598.31
2023-04-23T03:18:14.722Z,100594.72
2023-04-23T03:20:41.324Z,100599.16
2023-04-23T03:23:08.129Z,100601.88
2023-04-23T03:25:35.397Z,100590.94
2023-04-23T03:28:01.953Z,100588.19
2023-04-23T03:30:29.219Z,100584.63
2023-04-23T03:32:57.050Z,100586.31
2023-04-23T03:35:24.814Z,100582.72
2023-04-23T03:37:52.846Z,100578.09
2023-04-23T03:40:21.270Z,100580.00
2023-04-23T03:42:51.439Z,100571.78
2023-04-23T03:45:22.351Z,100573.66
2023-04-23T03:47:49.182Z,100572.63
2023-04-23T03:50:17.620Z,100572.63
2023-04-23T03:52:47.557Z,100569.03
2023-04-23T03:55:24.970Z,100571.78
2023-04-23T03:57:51.532Z,100563.56
2023-04-23T04:00:21.565Z,100566.31
2023-04-23T04:02:48.169Z,100570.94
2023-04-23T04:05:15.162Z,100575.38
2023-04-23T04:07:42.298Z,100565.47
2023-04-23T04:10:09.299Z,100575.38
2023-04-23T04:12:36.519Z,100570.94
2023-04-23T04:15:04.318Z,100576.41
2023-04-23T04:17:31.387Z,100565.47
2023-04-23T04:19:57.975Z,100572.81
2023-04-23T04:22:24.702Z,100570.94
2023-04-23T04:24:52.709Z,100570.94
2023-04-23T04:27:19.247Z,100565.47
2023-04-23T04:29:45.682Z,100572.81
2023-04-23T04:32:13.702Z,100566.50
2023-04-23T04:34:40.643Z,100567.34
2023-04-23T04:37:07.745Z,100571.13
2023-04-23T04:39:34.230Z,100577.44
2023-04-23T04:42:02.811Z,100569.25
2023-04-23T04:44:30.366Z,100573.88
2023-04-23T04:46:56.985Z,100581.03
2023-04-23T04:49:23.895Z,100584.81
2023-04-23T04:51:50.429Z,100591.13
2023-04-23T04:54:16.917Z,100589.25
2023-04-23T04:56:43.440Z,100574.72
2023-04-23T04:59:09.945Z,100579.34
2023-04-23T05:01:37.402Z,100579.34
2023-04-23T05:04:04.381Z,100583.97
2023-04-23T05:06:32.452Z,100577.44
2023-04-23T05:08:59.150Z,100581.88
2023-04-23T05:11:25.910Z,100571.97
2023-04-23T05:13:52.477Z,100563.75
2023-04-23T05:16:19.227Z,100570.94
2023-04-23T05:18:46.560Z,100581.03
2023-04-23T05:21:13.220Z,100575.56
2023-04-23T05:23:39.818Z,100581.03
2023-04-23T05:26:06.465Z,100575.56
2023-04-23T05:28:33.108Z,100584.63
2023-04-23T05:30:59.696Z,100584.63
2023-04-23T05:33:30.633Z,100583.56
2023-04-23T05:36:00.014Z,100580.00
2023-04-23T05:38:26.668Z,100577.44
2023-04-23T05:40:53.240Z,100576.41
2023-04-23T05:43:19.880Z,100576.41
2023-04-23T05:45:46.624Z,100575.56
2023-04-23T05:48:13.279Z,100581.03
2023-04-23T05:50:39.838Z,100576.41
2023-04-23T05:53:06.622Z,100585.47
2023-04-23T05:55:33.184Z,100583.78
2023-04-23T05:57:59.751Z,100578.09
2023-04-23T06:00:26.471Z,100582.72
2023-04-23T06:02:53.239Z,100576.41
2023-04-23T06:05:20.200Z,100578.28
2023-04-23T06:07:46.881Z,100567.34
2023-04-23T06:10:13.358Z,100568.19
2023-04-23T06:12:41.902Z,100570.09
2023-04-23T06:15:09.620Z,100572.81
2023-04-23T06:17:36.408Z,100562.06
2023-04-23T06:20:04.998Z,100567.53
2023-04-23T06:22:32.541Z,100570.28
2023-04-23T06:24:59.197Z,100575.75
2023-04-23T06:27:27.125Z,100575.75
2023-04-23T06:29:58.130Z,100574.06
2023-04-23T06:32:24.621Z,100565.00
2023-04-23T06:35:00.180Z,100560.38
2023-04-23T06:37:29.854Z,100559.31
2023-04-23T06:39:56.748Z,100555.94
2023-04-23T06:42:23.317Z,100556.97
2023-04-23T06:45:06.306Z,100555.09
2023-04-23T06:47:33.309Z,100550.47
2023-04-23T06:50:00.302Z,100547.72
2023-04-23T06:52:27.271Z,100540.38
2023-04-23T06:54:53.840Z,100538.66
2023-04-23T06:57:21.870Z,100537.81
2023-04-23T06:59:48.389Z,100537.81
2023-04-23T07:02:16.011Z,100535.09
2023-04-23T07:04:42.931Z,100540.56
2023-04-23T07:07:09.658Z,100535.94
2023-04-23T07:09:36.138Z,100531.50
2023-04-23T07:12:03.320Z,100533.38
2023-04-23T07:14:29.943Z,100535.09
2023-04-23T07:16:56.457Z,100527.91
2023-04-23T07:19:22.936Z,100529.63
2023-04-23T07:21:49.481Z,100527.91
2023-04-23T07:24:16.670Z,100527.91
2023-04-23T07:26:43.351Z,100532.53
2023-04-23T07:29:14.188Z,100525.19
2023-04-23T07:31:43.766Z,100526.03
2023-04-23T07:34:10.406Z,100524.34
2023-04-23T07:36:37.186Z,100527.91
2023-04-23T07:39:05.267Z,100526.03
2023-04-23T07:41:32.666Z,100530.66
2023-04-23T07:43:59.286Z,100526.03
2023-04-23T07:46:25.847Z,100529.63
2023-04-23T07:48:53.084Z,100524.34
2023-04-23T07:51:19.644Z,100524.34
2023-04-23T07:53:46.984Z,100519.72
2023-04-23T07:56:14.507Z,100519.91
2023-04-23T07:58:40.973Z,100511.50
2023-04-23T08:01:07.596Z,100516.97
2023-04-23T08:03:34.310Z,100510.66
2023-04-23T08:06:01.462Z,100509.59
2023-04-23T08:08:28.493Z,100513.19
2023-04-23T08:10:55.089Z,100508.56
2023-04-23T08:13:21.818Z,100506.88
2023-04-23T08:15:49.113Z,100507.72
2023-04-23T08:18:15.728Z,100500.56
2023-04-23T08:20:42.254Z,100507.72
2023-04-23T08:23:08.870Z,100511.31
2023-04-23T08:25:35.760Z,100494.03
2023-04-23T08:28:02.424Z,100496.78
2023-04-23T08:30:29.208Z,100495.06
2023-04-23T08:32:57.066Z,100496.78
2023-04-23T08:35:24.441Z,100497.63
2023-04-23T08:37:51.077Z,100499.50
2023-04-23T08:40:17.657Z,100504.97
2023-04-23T08:42:55.301Z,100494.88
2023-04-23T08:45:22.300Z,100495.06
2023-04-23T08:47:49.261Z,100490.44
2023-04-23T08:50:18.160Z,100496.78
2023-04-23T08:52:56.656Z,100484.78
2023-04-23T08:55:23.975Z,100484.97
2023-04-23T08:57:51.185Z,100485.81
2023-04-23T09:00:23.182Z,100486.66
2023-04-23T09:02:50.307Z,100492.16
2023-04-23T09:05:17.113Z,100492.16
2023-04-23T09:07:43.795Z,100493.84
2023-04-23T09:10:12.866Z,100483.94
2023-04-23T09:12:43.854Z,100471.94
2023-04-23T09:15:11.250Z,100473.84
2023-04-23T09:17:43.809Z,100478.25
2023-04-23T09:20:12.160Z,100477.41
2023-04-23T09:22:41.030Z,100479.13
2023-04-23T09:25:12.095Z,100483.53
2023-04-23T09:27:39.114Z,100482.50
2023-04-23T09:30:07.657Z,100475.34
2023-04-23T09:32:35.277Z,100471.56
2023-04-23T09:35:07.189Z,100469.66
2023-04-23T09:37:34.718Z,100477.88
2023-04-23T09:40:04.773Z,100475.97
2023-04-23T09:42:33.016Z,100464.19
2023-04-23T09:45:12.606Z,100471.34
2023-04-23T09:47:41.044Z,100471.56
2023-04-23T09:50:10.448Z,100476.84
2023-04-23T09:52:41.008Z,100474.75
2023-04-23T09:55:08.571Z,100474.75
2023-04-23T09:57:41.690Z,100464.66
2023-04-23T10:00:20.693Z,100469.91
2023-04-23T10:02:49.476Z,100459.16
2023-04-23T10:05:24.750Z,100452.66
2023-04-23T10:07:56.438Z,100448.03
2023-04-23T10:10:24.009Z,100448.03
2023-04-23T10:12:57.077Z,100449.72
2023-04-23T10:15:26.504Z,100448.88
2023-04-23T10:17:54.201Z,100451.41
2023-04-23T10:20:22.928Z,100439.63
2023-04-23T10:22:50.135Z,100441.31
2023-04-23T10:25:19.645Z,100448.47
2023-04-23T10:27:54.210Z,100441.94
2023-04-23T10:30:22.506Z,100439.22
2023-04-23T10:32:50.056Z,100435.63
2023-04-23T10:35:16.980Z,100439.03
2023-04-23T10:37:45.139Z,100437.97
2023-04-23T10:40:18.761Z,100432.50
2023-04-23T10:42:46.609Z,100427.03
2023-04-23T10:45:23.287Z,100421.56
2023-04-23T10:47:53.015Z,100418.81
2023-04-23T10:50:30.339Z,100406.63
2023-04-23T10:52:58.117Z,100409.56
2023-04-23T10:55:27.455Z,100411.25
2023-04-23T10:58:02.931Z,100408.50
2023-04-23T11:00:51.022Z,100401.16
2023-04-23T11:03:43.468Z,100401.16
2023-04-23T11:06:20.235Z,100400.31
2023-04-23T11:08:54.367Z,100391.25
2023-04-23T11:11:39.949Z,100394.81
2023-04-23T11:14:11.531Z,100401.94
2023-04-23T11:16:38.105Z,100384.47
2023-04-23T11:19:12.152Z,100385.97
2023-04-23T11:22:00.203Z,100377.56
2023-04-23T11:24:37.420Z,100363.88
2023-04-23T11:27:08.049Z,100376.50
2023-04-23T11:29:34.582Z,100374.63
2023-04-23T11:32:03.853Z,100368.09
2023-04-23T11:34:33.227Z,100371.47
2023-04-23T11:37:00.721Z,100365.16
2023-04-23T11:39:27.383Z,100355.06
2023-04-23T11:41:54.875Z,100354.00
2023-04-23T11:44:21.831Z,100346.63
2023-04-23T11:46:49.649Z,100342.00
2023-04-23T11:49:20.143Z,100334.63
2023-04-23T11:51:48.020Z,100334.63
2023-04-23T11:54:15.033Z,100331.72
2023-04-23T11:56:42.283Z,100312.56
2023-04-23T11:59:09.469Z,100321.63
2023-04-23T12:01:50.448Z,100318.69
2023-04-23T12:04:22.250Z,100321.44
2023-04-23T12:06:50.190Z,100312.38
2023-04-23T12:09:18.431Z,100305.84
2023-04-23T12:11:46.257Z,100303.09
2023-04-23T12:14:14.699Z,100296.59
2023-04-23T12:16:52.828Z,100291.94
2023-04-23T12:19:26.301Z,100282.06
2023-04-23T12:21:58.225Z,100278.25
2023-04-23T12:24:31.703Z,100282.69
2023-04-23T12:27:02.556Z,100277.22
2023-04-23T12:29:31.417Z,100269.00
2023-04-23T12:32:01.047Z,100265.22
2023-04-23T12:34:27.597Z,100267.94
2023-04-23T12:36:56.334Z,100259.75
2023-04-23T12:39:29.651Z,100255.94
2023-04-23T12:42:05.062Z,100250.47
2023-04-23T12:44:34.480Z,100251.31
2023-04-23T12:47:09.270Z,100249.44
2023-04-23T12:49:38.399Z,100247.75
2023-04-23T12:52:06.593Z,100238.47
2023-04-23T12:54:37.131Z,100227.53
2023-04-23T12:57:05.406Z,100233.84
2023-04-23T12:59:32.626Z,100234.69
2023-04-23T13:02:03.329Z,100230.91
2023-04-23T13:04:32.577Z,100218.25
2023-04-23T13:06:59.119Z,100223.53
2023-04-23T13:09:27.786Z,100224.59
2023-04-23T13:11:54.874Z,100219.09
2023-04-23T13:14:21.677Z,100219.94
2023-04-23T13:16:49.155Z,100211.72
2023-04-23T13:19:17.276Z,100219.09
2023-04-23T13:21:44.564Z,100209.00
2023-04-23T13:24:11.294Z,100206.25
2023-04-23T13:26:37.986Z,100211.72
2023-04-23T13:29:05.002Z,100209.84
2023-04-23T13:31:31.993Z,100195.31
2023-04-23T13:33:58.796Z,100190.66
2023-04-23T13:36:25.838Z,100190.66
2023-04-23T13:38:52.928Z,100190.66
2023-04-23T13:41:19.635Z,100181.81
2023-04-23T13:43:46.250Z,100179.94
2023-04-23T13:46:14.251Z,100182.66
2023-04-23T13:48:41.452Z,100176.13
2023-04-23T13:51:20.795Z,100175.28
2023-04-23T13:53:54.296Z,100175.50
2023-04-23T13:56:20.830Z,100164.53
2023-04-23T13:58:48.861Z,100165.38
2023-04-23T14:01:15.760Z,100168.13
2023-04-23T14:03:42.426Z,100159.06
2023-04-23T14:06:08.988Z,100152.75
2023-04-23T14:08:36.811Z,100150.84
2023-04-23T14:11:04.411Z,100141.78
2023-04-23T14:13:31.829Z,100142.63
2023-04-23T14:16:00.138Z,100132.75
2023-04-23T14:18:28.771Z,100126.41
2023-04-23T14:20:55.448Z,100114.63
2023-04-23T14:23:27.809Z,100120.94
2023-04-23T14:26:05.169Z,100117.38
2023-04-23T14:28:40.838Z,100120.31
2023-04-23T14:31:07.448Z,100115.88
2023-04-23T14:33:33.962Z,100120.50
2023-04-23T14:36:01.605Z,100132.31
2023-04-23T14:38:28.086Z,100142.41
2023-04-23T14:40:55.537Z,100158.84
2023-04-23T14:43:21.997Z,100154.41
2023-04-23T14:45:48.540Z,100157.16
2023-04-23T14:48:15.049Z,100167.25
2023-04-23T14:50:41.531Z,100161.78
2023-04-23T14:53:10.176Z,100163.47
2023-04-23T14:55:39.830Z,100171.91
2023-04-23T14:58:06.394Z,100170.19
2023-04-23T15:00:33.622Z,100176.53
2023-04-23T15:03:02.567Z,100170.19
2023-04-23T15:05:29.261Z,100171.91
2023-04-23T15:07:55.740Z,100181.16
2023-04-23T15:10:23.410Z,100172.94
2023-04-23T15:13:16.187Z,100170.19
2023-04-23T15:15:50.597Z,100173.97
2023-04-23T15:18:19.491Z,100166.78
2023-04-23T15:20:46.122Z,100166.78
2023-04-23T15:23:12.715Z,100163.22
2023-04-23T15:25:39.670Z,100166.78
2023-04-23T15:28:07.113Z,100168.91
2023-04-23T15:30:33.669Z,100163.41
2023-04-23T15:33:00.301Z,100163.41
2023-04-23T15:35:28.091Z,100167.00
2023-04-23T15:37:54.600Z,100167.00
2023-04-23T15:40:21.196Z,100167.84
2023-04-23T15:42:49.866Z,100166.16
2023-04-23T15:45:16.961Z,100166.16
2023-04-23T15:47:43.567Z,100157.94
2023-04-23T15:50:11.087Z,100151.63
2023-04-23T15:52:38.494Z,100150.78
2023-04-23T15:55:06.020Z,100141.53
2023-04-23T15:57:32.640Z,100138.78
2023-04-23T15:59:59.305Z,100133.31
2023-04-23T16:02:26.120Z,100121.72
2023-04-23T16:04:52.920Z,100111.59
2023-04-23T16:07:19.473Z,100101.72
2023-04-23T16:09:46.056Z,100097.06
2023-04-23T16:12:12.929Z,100088.03
2023-04-23T16:14:40.228Z,100082.56
2023-04-23T16:17:06.989Z,100076.22
2023-04-23T16:19:33.610Z,100064.44
2023-04-23T16:22:00.368Z,100060.66
2023-04-23T16:24:26.884Z,100049.91
2023-04-23T16:26:53.812Z,100051.59
2023-04-23T16:29:23.057Z,100031.59
2023-04-23T16:31:50.133Z,100029.06
2023-04-23T16:34:17.725Z,100028.84
2023-04-23T16:36:44.266Z,100021.47
2023-04-23T16:39:11.516Z,100008.84
2023-04-23T16:41:38.346Z,100006.09
2023-04-23T16:44:04.900Z,99997.91
2023-04-23T16:46:31.946Z,99990.75
2023-04-23T16:48:59.036Z,99992.44
2023-04-23T16:51:26.865Z,99986.09
2023-04-23T16:53:53.976Z,99979.78
2023-04-23T16:56:21.065Z,99959.78
2023-04-23T16:58:47.624Z,99955.16
2023-04-23T17:01:15.083Z,99957.06
2023-04-23T17:03:41.888Z,99953.25
2023-04-23T17:06:10.166Z,99945.06
2023-04-23T17:08:37.786Z,99936.84
2023-04-23T17:11:07.649Z,99933.25
2023-04-23T17:13:34.878Z,99936.84
2023-04-23T17:16:02.727Z,99927.78
2023-04-23T17:18:29.924Z,99923.34
2023-04-23T17:20:56.493Z,99916.84
2023-04-23T17:23:23.103Z,99912.41
2023-04-23T17:25:49.661Z,99907.78
2023-04-23T17:28:18.438Z,99903.16
2023-04-23T17:30:45.905Z,99902.09
2023-04-23T17:33:12.781Z,99892.19
2023-04-23T17:35:39.266Z,99893.88
2023-04-23T17:38:06.003Z,99892.00
2023-04-23T17:40:32.523Z,99890.31
2023-04-23T17:42:59.006Z,99880.19
2023-04-23T17:45:25.801Z,99876.41
2023-04-23T17:47:52.366Z,99866.50
2023-04-23T17:50:18.949Z,99871.97
2023-04-23T17:52:45.663Z,99863.78
2023-04-23T17:55:12.391Z,99856.41
2023-04-23T17:57:38.965Z,99854.72
2023-04-23T18:00:13.322Z,99843.78
2023-04-23T18:02:40.458Z,99840.19
2023-04-23T18:05:16.972Z,99841.88
2023-04-23T18:07:44.620Z,99830.09
2023-04-23T18:10:12.425Z,99840.19
2023-04-23T18:12:39.411Z,99830.09
2023-04-23T18:15:06.464Z,99830.09
2023-04-23T18:17:33.071Z,99834.72
2023-04-23T18:19:59.668Z,99822.94
2023-04-23T18:22:26.157Z,99822.72
2023-04-23T18:24:52.660Z,99814.72
2023-04-23T18:27:19.582Z,99817.44
2023-04-23T18:29:46.330Z,99806.50
2023-04-23T18:32:20.880Z,99807.34
2023-04-23T18:34:54.572Z,99806.50
2023-04-23T18:37:42.226Z,99801.03
2023-04-23T18:40:10.556Z,99799.34
2023-04-23T18:42:37.165Z,99798.50
2023-04-23T18:45:04.224Z,99795.78
2023-04-23T18:47:35.074Z,99793.66
2023-04-23T18:50:06.664Z,99780.19
2023-04-23T18:52:33.180Z,99776.63
2023-04-23T18:54:59.695Z,99782.09
2023-04-23T18:57:26.589Z,99773.88
2023-04-23T18:59:53.124Z,99784.81
2023-04-23T19:02:34.732Z,99770.28
2023-04-23T19:05:02.948Z,99774.72
2023-04-23T19:07:29.600Z,99774.94
2023-04-23T19:09:56.116Z,99779.34
2023-04-23T19:12:22.764Z,99766.72
2023-04-23T19:14:49.276Z,99781.25
2023-04-23T19:17:18.480Z,99783.13
2023-04-23T19:19:45.562Z,99793.88
2023-04-23T19:22:12.664Z,99824.81
2023-04-23T19:24:39.204Z,99823.16
2023-04-23T19:27:07.152Z,99820.41
2023-04-23T19:29:33.666Z,99812.19
2023-04-23T19:32:00.191Z,99803.97
2023-04-23T19:34:27.695Z,99793.88
2023-04-23T19:36:54.196Z,99789.47
2023-04-23T19:39:23.279Z,99788.63
2023-04-23T19:41:49.830Z,99782.09
2023-04-23T19:44:16.375Z,99787.56
2023-04-23T19:46:42.985Z,99787.56
2023-04-23T19:49:09.620Z,99779.34
2023-04-23T19:51:37.997Z,99769.25
2023-04-23T19:54:04.958Z,99766.72
2023-04-23T19:56:31.685Z,99777.44
2023-04-23T19:58:58.295Z,99767.56
2023-04-23T20:01:28.023Z,99783.13
2023-04-23T20:03:55.123Z,99778.50
2023-04-23T20:06:21.844Z,99777.66
2023-04-23T20:09:06.799Z,99773.03
2023-04-23T20:11:36.672Z,99763.97
2023-04-23T20:14:03.728Z,99764.19
2023-04-23T20:16:30.645Z,99754.09
2023-04-23T20:18:57.717Z,99754.94
2023-04-23T20:21:24.889Z,99751.13
2023-04-23T20:23:51.528Z,99748.63
2023-04-23T20:26:19.214Z,99746.72
2023-04-23T20:28:48.150Z,99735.78
2023-04-23T20:31:15.066Z,99730.31
2023-04-23T20:33:41.678Z,99733.88
2023-04-23T20:36:11.138Z,99736.41
2023-04-23T20:38:38.059Z,99731.13
2023-04-23T20:41:10.055Z,99731.13
2023-04-23T20:43:40.105Z,99734.94
2023-04-23T20:46:10.313Z,99736.81
2023-04-23T20:48:37.028Z,99745.88
2023-04-23T20:51:03.670Z,99737.66
2023-04-23T20:53:30.320Z,99745.88
2023-04-23T20:55:57.090Z,99747.78
2023-04-23T20:58:23.982Z,99755.97
2023-04-23T21:00:51.371Z,99758.72
2023-04-23T21:03:18.745Z,99757.88
2023-04-23T21:05:45.534Z,99769.66
2023-04-23T21:08:13.682Z,99773.25
2023-04-23T21:10:41.137Z,99765.03
2023-04-23T21:13:10.938Z,99777.88
2023-04-23T21:15:38.487Z,99775.16
2023-04-23T21:18:05.774Z,99787.16
2023-04-23T21:20:32.671Z,99788.00
2023-04-23T21:22:59.172Z,99786.31
2023-04-23T21:25:26.758Z,99789.03
2023-04-23T21:27:57.044Z,99790.72
2023-04-23T21:30:52.505Z,99788.00
2023-04-23T21:33:21.132Z,99785.69
2023-04-23T21:35:49.670Z,99787.34
2023-04-23T21:38:17.046Z,99786.53
2023-04-23T21:40:43.735Z,99799.34
2023-04-23T21:43:11.564Z,99802.94
2023-04-23T21:45:38.271Z,99809.25
2023-04-23T21:48:05.919Z,99801.03
2023-04-23T21:50:32.945Z,99820.19
2023-04-23T21:52:59.709Z,99817.69
2023-04-23T21:55:27.612Z,99822.09
2023-04-23T21:58:00.447Z,99830.31
2023-04-23T22:00:33.212Z,99819.56
2023-04-23T22:03:00.043Z,99825.88
2023-04-23T22:05:28.405Z,99829.47
2023-04-23T22:07:55.670Z,99834.09
2023-04-23T22:10:23.856Z,99840.41
2023-04-23T22:12:50.436Z,99836.84
2023-04-23T22:15:18.710Z,99836.84
2023-04-23T22:17:50.537Z,99843.38
2023-04-23T22:20:18.988Z,99846.09
2023-04-23T22:22:46.033Z,99843.38
2023-04-23T22:25:13.064Z,99838.94
2023-04-23T22:27:40.992Z,99846.09
2023-04-23T22:30:09.849Z,99842.53
2023-04-23T22:32:37.700Z,99847.16
2023-04-23T22:35:05.347Z,99848.84
2023-04-23T22:37:32.460Z,99848.84
2023-04-23T22:39:59.931Z,99847.16
2023-04-23T22:42:26.783Z,99844.63
2023-04-23T22:44:53.254Z,99860.00
2023-04-23T22:47:19.887Z,99856.41
2023-04-23T22:49:46.676Z,99860.00
2023-04-23T22:52:14.310Z,99850.94
2023-04-23T22:54:41.610Z,99861.88
2023-04-23T22:57:09.029Z,99859.16
2023-04-23T22:59:35.923Z,99863.78
2023-04-23T23:02:02.473Z,99869.25
2023-04-23T23:04:29.017Z,99865.69
2023-04-23T23:06:55.607Z,99864.00
2023-04-23T23:09:22.196Z,99877.69
2023-04-23T23:11:48.706Z,99875.56
2023-04-23T23:14:15.290Z,99875.78
2023-04-23T23:16:41.890Z,99869.47
2023-04-23T23:19:08.419Z,99876.63
2023-04-23T23:21:34.934Z,99877.69
2023-04-23T23:24:01.423Z,99874.94
2023-04-23T23:26:28.774Z,99879.34
2023-04-23T23:28:55.694Z,99877.69
2023-04-23T23:31:25.840Z,99880.41
2023-04-23T23:33:53.233Z,99876.84
2023-04-23T23:36:19.791Z,99879.56
2023-04-23T23:38:46.263Z,99869.47
2023-04-23T23:41:12.835Z,99876.84
2023-04-23T23:43:39.611Z,99880.63
2023-04-23T23:46:06.242Z,99885.03
2023-04-23T23:48:32.796Z,99886.94
2023-04-23T23:50:59.409Z,99888.84
2023-04-23T23:53:26.346Z,99882.50
2023-04-23T23:55:52.823Z,99886.09
2023-04-23T23:58:19.324Z,99887.16
